首页
METAR-TAF:

METAR-TAF

机场 :

Greenwood, 密西西比州, 美国

纬度: 33-29-33N, 经度: 090-05-01W, 海拔: 47米

METAR: 丢失

时间: 08:33 (13:33 UTC)

预报

该预报发布于2小时和13分钟前的11:20 UTC
预报有效从18日的 12点(UTC)到 19日的 12点(UTC)
风速4节,风向西转西北
能見度: 9.7公里
散云层高于3500英尺
阴天层高于9000英尺
轻雾
从 18日的 1500点(UTC)
风速6节,风向西转西北
能見度: 10公里
多云层高于3500英尺
附近有阵雨,

TAF: KGWO 181120Z 1812/1912 30004KT 6SM BR SCT035 OVC090 FM181500 30006KT P6SM VCSH BKN035 AMD NOT SKED

超过4000个机场的气象观测和天气预报(METAR&TAF报告)。

可查询的气象台以黄色和红色小点在地图上表示。

将鼠标移到小点上方,可查看气象台名称。

然后点击查看天气观测和预报。

如需切换地图:点击带黑十字的绿色按钮放大地图;点击带横线的绿色按钮缩小地图;或者点击绿色箭头查看邻近地区的地图。


METAR-TAF: